Time;durP1;ratioP1;P1;durP2;ratioP2;P2;SDS_P1;SDS_P2;PMS_P1;PMS_P2;Temp;Humidity;BMP_temperature;BMP_pressure;BME280_temperature;BME280_humidity;BME280_pressure;Samples;Min_cycle;Max_cycle;Signal;HPM_P1;HPM_P2
2022/08/22 00:01:32;;;;;;;0.00;0.00;;;21.10;83.40;;;;;;4912229;29;20646;-68
2022/08/22 00:04:23;;;;;;;0.05;0.05;;;21.00;84.10;;;;;;4967326;28;20053;-68
2022/08/22 00:07:34;;;;;;;0.17;0.10;;;21.00;84.10;;;;;;4971761;28;20038;-68
2022/08/22 00:10:10;;;;;;;0.00;0.00;;;20.80;84.50;;;;;;4926038;28;20047;-69
2022/08/22 00:13:08;;;;;;;0.00;0.00;;;20.80;85.40;;;;;;4971594;28;20046;-68
2022/08/22 00:15:48;;;;;;;0.00;0.00;;;20.80;85.80;;;;;;4972338;28;20031;-68
2022/08/22 00:18:56;;;;;;;0.10;0.10;;;20.80;86.00;;;;;;4986629;28;20475;-67
2022/08/22 00:21:51;;;;;;;0.20;0.20;;;20.80;85.90;;;;;;4971985;28;20074;-68
2022/08/22 00:24:39;;;;;;;0.30;0.30;;;20.80;85.50;;;;;;4971899;28;20130;-68
2022/08/22 00:27:14;;;;;;;0.00;0.00;;;20.90;85.90;;;;;;4984856;28;20035;-68
2022/08/22 00:29:56;;;;;;;4.03;0.75;;;20.90;86.10;;;;;;4986570;28;20026;-68
2022/08/22 00:32:47;;;;;;;0.00;0.00;;;20.70;86.00;;;;;;4986046;28;20109;-68
2022/08/22 00:35:47;;;;;;;0.10;0.10;;;20.70;86.40;;;;;;4986458;28;20045;-68
2022/08/22 00:38:26;;;;;;;0.00;0.00;;;20.80;86.40;;;;;;4971681;28;20039;-68
2022/08/22 00:41:16;;;;;;;0.00;0.00;;;20.80;86.70;;;;;;4985715;28;20034;-68
2022/08/22 00:44:03;;;;;;;0.00;0.00;;;20.80;86.40;;;;;;4971691;28;20043;-68
2022/08/22 00:46:54;;;;;;;0.32;0.30;;;20.80;86.90;;;;;;4971916;28;20131;-68
2022/08/22 00:49:52;;;;;;;0.20;0.20;;;20.60;86.50;;;;;;4970993;28;20086;-68
2022/08/22 00:52:38;;;;;;;0.43;0.43;;;20.50;87.90;;;;;;4985268;28;20114;-68
2022/08/22 00:55:19;;;;;;;0.98;0.82;;;20.50;88.60;;;;;;4971808;28;20023;-68
2022/08/22 00:58:06;;;;;;;0.20;0.20;;;20.30;88.20;;;;;;4986657;28;20105;-68
2022/08/22 01:00:43;;;;;;;0.63;0.45;;;20.30;88.90;;;;;;4970181;28;20038;-67
2022/08/22 01:03:25;;;;;;;0.40;0.38;;;20.30;89.00;;;;;;4985796;28;20027;-68
2022/08/22 01:06:27;;;;;;;0.55;0.55;;;20.40;88.60;;;;;;4977423;28;20023;-68
2022/08/22 01:09:35;;;;;;;0.00;0.00;;;20.50;88.40;;;;;;4989127;28;20030;-68
2022/08/22 01:12:31;;;;;;;0.10;0.10;;;20.60;88.10;;;;;;4990367;28;20524;-68
2022/08/22 01:15:04;;;;;;;0.35;0.30;;;20.60;87.70;;;;;;4986634;28;20383;-68
2022/08/22 01:17:57;;;;;;;0.28;0.28;;;20.70;87.80;;;;;;4985911;28;20054;-68
2022/08/22 01:21:18;;;;;;;0.40;0.25;;;20.50;87.30;;;;;;4986240;28;20500;-68
2022/08/22 01:24:23;;;;;;;1.17;0.70;;;20.40;88.00;;;;;;4977511;28;20034;-68
2022/08/22 01:27:09;;;;;;;0.00;0.00;;;20.40;88.20;;;;;;4994470;28;20065;-68
2022/08/22 01:30:02;;;;;;;0.00;0.00;;;20.30;88.60;;;;;;5008120;28;20030;-68
2022/08/22 01:33:05;;;;;;;0.38;0.32;;;20.30;88.70;;;;;;4994065;28;20069;-68
2022/08/22 01:36:01;;;;;;;0.03;0.03;;;20.20;89.00;;;;;;4994329;28;20041;-68
2022/08/22 01:39:20;;;;;;;2.35;1.55;;;20.10;89.00;;;;;;5006871;28;20034;-68
2022/08/22 01:42:20;;;;;;;0.00;0.00;;;20.10;89.50;;;;;;4979364;28;20038;-68
2022/08/22 01:45:22;;;;;;;2.88;0.45;;;20.10;90.00;;;;;;4974438;28;20513;-68
2022/08/22 01:47:56;;;;;;;;;;;20.00;90.00;;;;;;4987621;28;20085;-68
2022/08/22 01:50:33;;;;;;;0.00;0.00;;;20.00;90.20;;;;;;4974374;28;20009;-68
2022/08/22 01:53:36;;;;;;;1.83;1.30;;;20.10;90.00;;;;;;4974324;28;20026;-68
2022/08/22 01:56:20;;;;;;;0.20;0.20;;;20.20;89.70;;;;;;4973881;28;20031;-69
2022/08/22 01:58:58;;;;;;;0.00;0.00;;;20.30;89.00;;;;;;4988098;28;20034;-68
2022/08/22 02:02:03;;;;;;;0.05;0.03;;;20.30;89.10;;;;;;4974347;28;20031;-68
2022/08/22 02:04:51;;;;;;;0.00;0.00;;;20.50;88.30;;;;;;4988421;28;20077;-68
2022/08/22 02:07:25;;;;;;;0.63;0.38;;;20.60;88.70;;;;;;4974099;28;20133;-68
2022/08/22 02:10:10;;;;;;;0.00;0.00;;;20.80;88.10;;;;;;4988810;28;20114;-68
2022/08/22 02:12:46;;;;;;;0.40;0.40;;;20.90;87.70;;;;;;4988611;28;20041;-68
2022/08/22 02:15:23;;;;;;;0.28;0.17;;;21.00;87.00;;;;;;4982146;28;20022;-68
2022/08/22 02:18:05;;;;;;;0.30;0.28;;;21.00;86.60;;;;;;5008089;28;20376;-68
2022/08/22 02:21:15;;;;;;;0.00;0.00;;;20.70;86.90;;;;;;4993290;28;20030;-68
2022/08/22 02:24:09;;;;;;;0.98;0.68;;;20.60;88.40;;;;;;4992801;28;20031;-68
2022/08/22 02:27:02;;;;;;;0.30;0.30;;;20.50;88.40;;;;;;4995556;28;20136;-68
2022/08/22 02:29:58;;;;;;;0.30;0.30;;;20.40;88.40;;;;;;5006750;28;20057;-68
2022/08/22 02:33:01;;;;;;;1.33;0.40;;;20.10;89.50;;;;;;4992739;28;20076;-68
2022/08/22 02:35:48;;;;;;;0.35;0.30;;;20.10;90.20;;;;;;4993078;28;20088;-68
2022/08/22 02:38:53;;;;;;;0.08;0.08;;;20.10;90.20;;;;;;5006872;28;20041;-68
2022/08/22 02:41:46;;;;;;;5.05;1.85;;;20.10;90.20;;;;;;5005797;28;20081;-68
2022/08/22 02:44:34;;;;;;;0.10;0.10;;;20.10;90.10;;;;;;4986068;28;20394;-67
2022/08/22 02:47:10;;;;;;;0.30;0.30;;;20.10;90.40;;;;;;5007146;28;20037;-68
2022/08/22 02:50:10;;;;;;;0.20;0.20;;;19.90;90.10;;;;;;5007160;28;20061;-67
2022/08/22 02:53:07;;;;;;;7.57;0.90;;;19.70;90.50;;;;;;4991353;28;20062;-67
2022/08/22 02:56:00;;;;;;;0.20;0.20;;;19.70;90.90;;;;;;5006984;28;20030;-70
2022/08/22 02:58:58;;;;;;;0.17;0.15;;;19.80;91.10;;;;;;5006211;28;20030;-67
2022/08/22 03:01:26;;;;;;;0.03;0.03;;;19.80;90.90;;;;;;5006121;28;20096;-67
2022/08/22 03:04:20;;;;;;;0.45;0.43;;;19.80;91.30;;;;;;4992313;28;20039;-67
2022/08/22 03:07:19;;;;;;;0.00;0.00;;;19.70;91.10;;;;;;4991453;28;20026;-67
2022/08/22 03:10:09;;;;;;;2.13;0.70;;;19.60;91.50;;;;;;4992365;28;20124;-67
2022/08/22 03:13:07;;;;;;;0.20;0.20;;;19.30;92.00;;;;;;4992225;28;20035;-67
2022/08/22 03:15:59;;;;;;;16.42;1.15;;;19.20;92.30;;;;;;4981178;28;20669;-68
2022/08/22 03:18:45;;;;;;;0.00;0.00;;;19.10;92.70;;;;;;4971728;28;20039;-67
2022/08/22 03:22:00;;;;;;;0.40;0.40;;;19.00;93.00;;;;;;4985881;28;20042;-67
2022/08/22 03:24:55;;;;;;;0.88;0.70;;;18.90;93.50;;;;;;4972608;28;20035;-68
2022/08/22 03:27:41;;;;;;;0.00;0.00;;;18.60;94.00;;;;;;4986764;28;20062;-68
2022/08/22 03:30:21;;;;;;;0.10;0.10;;;18.50;94.80;;;;;;4987376;28;20034;-69
2022/08/22 03:33:23;;;;;;;0.08;0.08;;;18.30;95.50;;;;;;4987160;28;20041;-68
2022/08/22 03:36:11;;;;;;;0.75;0.65;;;18.30;96.30;;;;;;4972718;28;20031;-68
2022/08/22 03:39:05;;;;;;;0.20;0.15;;;18.10;97.10;;;;;;4985991;28;20047;-67
2022/08/22 03:41:51;;;;;;;0.57;0.47;;;18.00;98.00;;;;;;4987604;28;20122;-68
2022/08/22 03:45:08;;;;;;;1.35;0.63;;;18.10;98.30;;;;;;4987339;28;20376;-67
2022/08/22 03:48:23;;;;;;;0.10;0.10;;;18.20;98.30;;;;;;4984367;28;20058;-68
2022/08/22 03:51:35;;;;;;;0.32;0.30;;;18.20;98.10;;;;;;4971864;28;20396;-67
2022/08/22 03:54:51;;;;;;;1.55;0.85;;;18.40;98.30;;;;;;4970662;28;20030;-67
2022/08/22 03:57:54;;;;;;;0.40;0.25;;;18.50;98.20;;;;;;4972536;28;20034;-67
2022/08/22 04:01:14;;;;;;;0.00;0.00;;;18.50;98.60;;;;;;4971995;28;20581;-67
2022/08/22 04:03:58;;;;;;;0.00;0.00;;;18.60;98.60;;;;;;4971741;28;20049;-68
2022/08/22 04:06:39;;;;;;;0.50;0.50;;;18.60;98.40;;;;;;4972277;28;20066;-68
2022/08/22 04:09:07;;;;;;;;;;;18.50;98.50;;;;;;4986982;28;20476;-68
2022/08/22 04:12:07;;;;;;;0.00;0.00;;;18.40;98.70;;;;;;4972004;28;19918;-69
2022/08/22 04:15:01;;;;;;;0.00;0.00;;;18.30;99.30;;;;;;4975107;28;20100;-68
2022/08/22 04:18:06;;;;;;;0.65;0.50;;;18.30;99.90;;;;;;4981138;28;20074;-67
2022/08/22 04:21:05;;;;;;;0.10;0.10;;;18.10;99.90;;;;;;4995233;28;20109;-67
2022/08/22 04:23:57;;;;;;;3.15;0.88;;;18.00;99.90;;;;;;4979121;28;20026;-67
2022/08/22 04:26:46;;;;;;;0.05;0.05;;;17.80;99.90;;;;;;4990126;28;20424;-67
2022/08/22 04:29:51;;;;;;;0.15;0.15;;;17.70;99.90;;;;;;4971518;28;20030;-67
2022/08/22 04:32:29;;;;;;;0.35;0.30;;;17.50;99.90;;;;;;4986457;28;20031;-67
2022/08/22 04:35:02;;;;;;;2.13;0.80;;;17.50;99.90;;;;;;4971658;28;20384;-67
2022/08/22 04:37:39;;;;;;;0.20;0.20;;;17.50;99.90;;;;;;4986644;28;20034;-67
2022/08/22 04:40:23;;;;;;;9.32;0.98;;;17.40;99.90;;;;;;4971404;28;20566;-67
2022/08/22 04:43:16;;;;;;;0.10;0.10;;;17.20;99.90;;;;;;4985952;28;20117;-70
2022/08/22 04:45:58;;;;;;;0.00;0.00;;;17.20;99.90;;;;;;4985492;28;20039;-66
2022/08/22 04:48:51;;;;;;;0.98;0.63;;;17.20;99.90;;;;;;5017655;28;20022;-66
2022/08/22 04:51:36;;;;;;;0.20;0.20;;;17.20;99.90;;;;;;5009871;28;20119;-66
2022/08/22 04:54:22;;;;;;;1.05;0.90;;;17.30;99.90;;;;;;4981295;28;20046;-67
2022/08/22 04:57:22;;;;;;;0.17;0.17;;;17.20;99.90;;;;;;4990880;28;20117;-67
2022/08/22 04:59:49;;;;;;;3.53;1.85;;;17.10;99.90;;;;;;4989979;28;20045;-66
2022/08/22 05:02:26;;;;;;;0.20;0.20;;;17.20;99.90;;;;;;5009324;28;20034;-66
2022/08/22 05:05:11;;;;;;;1.35;1.25;;;17.20;99.90;;;;;;5009049;28;20031;-66
2022/08/22 05:07:48;;;;;;;0.85;0.85;;;17.30;99.90;;;;;;4994835;28;20113;-66
2022/08/22 05:10:25;;;;;;;5.20;0.40;;;17.40;99.90;;;;;;5007874;28;20034;-66
2022/08/22 05:13:08;;;;;;;0.03;0.03;;;17.40;99.90;;;;;;5009052;28;20061;-66
2022/08/22 05:15:44;;;;;;;0.05;0.05;;;17.50;99.90;;;;;;4996545;28;20027;-68
2022/08/22 05:18:21;;;;;;;0.30;0.30;;;17.50;99.90;;;;;;4989123;28;20482;-68
2022/08/22 05:20:50;;;;;;;3.10;0.85;;;17.50;99.90;;;;;;4994218;28;20053;-66
2022/08/22 05:23:30;;;;;;;4.68;1.17;;;17.50;99.90;;;;;;4994101;28;20095;-67
2022/08/22 05:26:01;;;;;;;1.95;0.20;;;17.60;99.90;;;;;;4992958;28;20042;-68
2022/08/22 05:28:39;;;;;;;;;;;17.70;99.90;;;;;;4993532;28;20034;-65
2022/08/22 05:31:12;;;;;;;1.77;0.57;;;17.80;99.90;;;;;;4991243;28;19914;-65
2022/08/22 05:33:49;;;;;;;0.22;0.13;;;17.90;99.90;;;;;;5007035;28;20026;-65
2022/08/22 05:36:26;;;;;;;0.00;0.00;;;17.90;99.90;;;;;;4993595;28;20371;-65
2022/08/22 05:39:01;;;;;;;0.10;0.10;;;18.00;99.90;;;;;;5008236;28;20026;-66
2022/08/22 05:41:36;;;;;;;0.20;0.13;;;18.00;99.90;;;;;;5008424;28;20022;-65
2022/08/22 05:44:03;;;;;;;2.90;0.47;;;18.10;99.90;;;;;;4993391;28;20035;-67
2022/08/22 05:46:42;;;;;;;0.63;0.45;;;18.20;99.90;;;;;;5008698;28;20035;-65
2022/08/22 05:49:34;;;;;;;5.50;0.77;;;18.20;99.90;;;;;;5008529;28;20394;-65
2022/08/22 05:52:22;;;;;;;1.13;1.02;;;18.40;99.90;;;;;;5008707;28;20492;-66
2022/08/22 05:54:58;;;;;;;0.68;0.65;;;18.60;99.90;;;;;;4993737;28;20089;-66
2022/08/22 05:57:32;;;;;;;0.90;0.85;;;18.70;99.90;;;;;;5008518;28;20060;-66
2022/08/22 06:00:16;;;;;;;0.30;0.30;;;18.70;99.90;;;;;;4993453;28;20041;-66
2022/08/22 06:03:06;;;;;;;1.23;0.85;;;18.80;99.90;;;;;;4989589;28;20031;-66
2022/08/22 06:05:38;;;;;;;4.45;2.17;;;18.80;99.90;;;;;;4974293;28;20039;-66
2022/08/22 06:08:28;;;;;;;0.57;0.57;;;18.80;99.90;;;;;;4972937;28;20046;-66
2022/08/22 06:11:04;;;;;;;0.55;0.50;;;18.80;99.90;;;;;;4972173;28;20133;-65
2022/08/22 06:13:48;;;;;;;0.00;0.00;;;18.80;99.90;;;;;;4972784;28;20070;-65
2022/08/22 06:16:33;;;;;;;1.88;0.70;;;18.90;99.90;;;;;;4974344;28;20491;-66
2022/08/22 06:19:01;;;;;;;0.38;0.30;;;18.90;99.90;;;;;;4953647;29;20031;-65
2022/08/22 06:21:36;;;;;;;0.10;0.10;;;18.90;99.90;;;;;;4953330;29;20611;-66
2022/08/22 06:24:07;;;;;;;0.13;0.13;;;18.90;99.90;;;;;;4953006;29;20028;-66
2022/08/22 06:26:42;;;;;;;0.63;0.60;;;18.90;99.90;;;;;;4953398;29;20099;-65
2022/08/22 06:29:14;;;;;;;0.20;0.20;;;18.90;99.90;;;;;;4954248;28;20090;-66
2022/08/22 06:31:47;;;;;;;3.13;1.77;;;19.00;99.90;;;;;;4968466;28;20030;-65
2022/08/22 06:34:21;;;;;;;1.15;0.85;;;19.10;99.90;;;;;;4986304;28;20038;-64
2022/08/22 06:36:50;;;;;;;3.33;0.32;;;19.10;99.90;;;;;;4987777;28;20042;-64
2022/08/22 06:39:29;;;;;;;0.00;0.00;;;19.20;99.90;;;;;;4971853;28;20038;-65
2022/08/22 06:42:17;;;;;;;6.28;1.10;;;19.30;99.90;;;;;;4987639;28;20034;-64
2022/08/22 06:44:56;;;;;;;0.93;0.47;;;19.40;99.90;;;;;;4987799;28;20403;-66
2022/08/22 06:47:46;;;;;;;3.53;2.20;;;19.60;99.90;;;;;;4981184;28;20026;-64
2022/08/22 06:50:19;;;;;;;5.72;3.10;;;19.70;99.90;;;;;;5006936;28;20049;-64
2022/08/22 06:53:34;;;;;;;7.13;0.47;;;19.80;99.90;;;;;;4992807;28;20066;-64
2022/08/22 06:56:04;;;;;;;1.35;0.68;;;20.00;99.90;;;;;;4975973;28;20046;-64
2022/08/22 06:58:42;;;;;;;1.35;0.95;;;20.10;99.80;;;;;;4991254;28;20446;-64
2022/08/22 07:01:20;;;;;;;1.77;1.15;;;20.20;99.40;;;;;;5007170;28;20030;-64
2022/08/22 07:03:51;;;;;;;0.17;0.10;;;20.30;99.20;;;;;;5007203;28;20037;-64
2022/08/22 07:06:29;;;;;;;0.13;0.13;;;20.40;98.90;;;;;;4992684;28;20461;-68
2022/08/22 07:08:56;;;;;;;0.30;0.30;;;20.50;99.00;;;;;;5007279;28;20466;-68
2022/08/22 07:11:31;;;;;;;0.05;0.03;;;20.60;98.50;;;;;;4991922;28;20394;-67
2022/08/22 07:14:10;;;;;;;0.05;0.05;;;20.70;98.50;;;;;;4969762;28;20678;-67
2022/08/22 07:16:55;;;;;;;0.85;0.75;;;20.70;98.20;;;;;;4978296;28;20030;-67
2022/08/22 07:19:36;;;;;;;0.32;0.32;;;20.90;97.70;;;;;;5006418;28;20660;-67
2022/08/22 07:22:29;;;;;;;1.30;1.17;;;20.90;97.20;;;;;;5004978;28;20030;-68
2022/08/22 07:25:11;;;;;;;0.05;0.05;;;21.10;96.80;;;;;;4980831;28;20062;-68
2022/08/22 07:28:30;;;;;;;2.67;0.55;;;21.30;96.50;;;;;;4990756;28;20041;-67
2022/08/22 07:31:30;;;;;;;0.30;0.15;;;21.50;96.30;;;;;;4912253;29;20036;-67
2022/08/22 07:34:09;;;;;;;2.88;1.67;;;21.70;96.00;;;;;;4990363;28;20049;-67
2022/08/22 07:36:47;;;;;;;0.10;0.10;;;21.90;95.60;;;;;;4991705;28;20062;-67
2022/08/22 07:39:35;;;;;;;0.82;0.82;;;22.00;95.40;;;;;;5006509;28;20026;-66
2022/08/22 07:42:17;;;;;;;0.45;0.40;;;22.20;94.80;;;;;;4991368;28;20121;-66
2022/08/22 07:45:10;;;;;;;2.25;0.98;;;22.30;94.50;;;;;;4981717;28;20089;-66
2022/08/22 07:47:42;;;;;;;0.63;0.63;;;22.40;94.30;;;;;;4983248;28;20031;-65
2022/08/22 07:50:14;;;;;;;3.00;1.33;;;22.60;94.10;;;;;;4969953;28;20479;-65
2022/08/22 07:52:44;;;;;;;0.10;0.10;;;22.80;94.00;;;;;;4984022;28;20491;-65
2022/08/22 07:55:23;;;;;;;3.42;0.80;;;22.90;93.10;;;;;;4978519;28;20057;-65
2022/08/22 07:58:00;;;;;;;1.45;1.00;;;22.80;93.00;;;;;;5005331;28;20034;-65
2022/08/22 08:00:28;;;;;;;0.95;0.55;;;22.90;93.40;;;;;;4991142;28;20042;-65
2022/08/22 08:03:00;;;;;;;0.00;0.00;;;23.00;93.00;;;;;;4990952;28;20078;-65
2022/08/22 08:05:31;;;;;;;0.10;0.10;;;23.10;92.90;;;;;;5005931;28;20037;-66
2022/08/22 08:08:13;;;;;;;36.95;2.65;;;23.20;92.90;;;;;;5006124;28;20112;-65
2022/08/22 08:13:24;;;;;;;0.73;0.20;;;23.50;92.50;;;;;;4950922;28;20109;-66
2022/08/22 08:15:50;;;;;;;1.67;0.52;;;23.60;91.80;;;;;;4935631;29;20376;-66
2022/08/22 08:18:24;;;;;;;0.20;0.20;;;23.60;91.60;;;;;;4935356;29;20369;-66
2022/08/22 08:20:55;;;;;;;1.98;0.57;;;23.70;91.90;;;;;;4934458;29;20525;-66
2022/08/22 08:23:23;;;;;;;1.02;0.28;;;23.80;91.60;;;;;;4951014;29;20031;-66
2022/08/22 08:26:03;;;;;;;0.32;0.22;;;23.70;91.50;;;;;;4952279;29;20082;-66
2022/08/22 08:28:33;;;;;;;3.95;2.47;;;23.80;91.50;;;;;;4950845;29;20031;-67
2022/08/22 08:31:07;;;;;;;0.43;0.43;;;24.00;91.40;;;;;;4950771;29;20031;-66
2022/08/22 08:33:38;;;;;;;0.77;0.57;;;24.00;91.30;;;;;;4950728;28;20043;-63
2022/08/22 08:36:25;;;;;;;0.10;0.10;;;23.70;90.70;;;;;;4949773;29;20028;-66
2022/08/22 08:39:13;;;;;;;0.73;0.70;;;23.90;90.80;;;;;;4947844;29;20462;-64
2022/08/22 08:41:59;;;;;;;0.30;0.30;;;24.10;90.70;;;;;;4951292;29;20558;-64
2022/08/22 08:45:17;;;;;;;0.68;0.68;;;24.20;90.30;;;;;;4952254;29;20411;-64
2022/08/22 08:48:04;;;;;;;0.52;0.52;;;24.20;90.00;;;;;;4942844;29;20114;-65
2022/08/22 08:50:51;;;;;;;0.13;0.13;;;24.30;90.00;;;;;;4942714;29;20032;-64
2022/08/22 08:53:37;;;;;;;0.65;0.47;;;24.50;89.90;;;;;;4951599;29;20027;-64
2022/08/22 08:56:15;;;;;;;1.52;0.85;;;24.50;89.30;;;;;;4928413;29;20095;-64
2022/08/22 08:59:31;;;;;;;11.85;0.70;;;24.80;89.00;;;;;;4949127;29;20066;-64
2022/08/22 09:02:25;;;;;;;1.98;1.17;;;25.00;89.20;;;;;;4931026;29;20043;-64
2022/08/22 09:05:22;;;;;;;1.15;0.85;;;25.00;87.50;;;;;;4947140;29;20035;-64
2022/08/22 09:08:33;;;;;;;1.48;1.17;;;25.10;87.50;;;;;;4949917;29;20027;-64
2022/08/22 09:11:24;;;;;;;5.45;1.30;;;25.20;87.80;;;;;;4940676;29;20292;-63
2022/08/22 09:13:53;;;;;;;;;;;25.30;86.60;;;;;;4951947;29;20031;-63
2022/08/22 09:16:41;;;;;;;0.00;0.00;;;25.50;86.40;;;;;;4929210;29;20379;-63
2022/08/22 09:19:43;;;;;;;1.45;0.85;;;25.70;86.60;;;;;;4949512;29;20050;-63
2022/08/22 09:22:52;;;;;;;2.13;0.65;;;25.80;85.30;;;;;;4933643;29;20484;-63
2022/08/22 09:25:47;;;;;;;0.20;0.20;;;25.80;85.00;;;;;;4944016;29;20173;-63
2022/08/22 09:28:30;;;;;;;0.00;0.00;;;25.80;84.00;;;;;;4939992;29;20501;-63
2022/08/22 09:31:35;;;;;;;0.30;0.30;;;25.90;84.30;;;;;;4942524;29;20036;-63
2022/08/22 09:34:16;;;;;;;1.17;0.80;;;25.80;84.10;;;;;;4948943;29;20035;-63
2022/08/22 09:37:06;;;;;;;;;;;25.80;83.40;;;;;;4943745;29;20086;-63
2022/08/22 09:40:02;;;;;;;1.55;1.30;;;25.80;83.70;;;;;;4945012;29;19917;-64
2022/08/22 09:42:53;;;;;;;19.42;0.85;;;26.00;83.30;;;;;;4944806;29;20035;-63
2022/08/22 09:45:40;;;;;;;0.80;0.75;;;26.30;83.30;;;;;;4943728;28;20484;-64
2022/08/22 09:48:43;;;;;;;1.00;0.65;;;26.50;82.20;;;;;;4948619;29;20031;-65
2022/08/22 09:51:39;;;;;;;0.00;0.00;;;26.60;81.50;;;;;;4943040;29;20035;-64
2022/08/22 09:54:13;;;;;;;0.08;0.08;;;26.80;81.50;;;;;;4952480;29;20035;-64
2022/08/22 09:56:59;;;;;;;0.57;0.43;;;27.10;80.80;;;;;;4946151;29;20176;-64
2022/08/22 10:00:31;;;;;;;0.10;0.10;;;27.30;80.50;;;;;;4954146;29;20408;-64
2022/08/22 10:03:31;;;;;;;7.43;0.95;;;27.60;79.50;;;;;;4938871;29;20031;-64
2022/08/22 10:06:07;;;;;;;0.47;0.40;;;27.80;79.00;;;;;;4954092;29;20067;-64
2022/08/22 10:08:42;;;;;;;0.38;0.38;;;28.00;78.00;;;;;;4952085;29;20060;-64
2022/08/22 10:11:22;;;;;;;0.10;0.10;;;28.20;77.10;;;;;;4934112;29;20031;-63
2022/08/22 10:14:02;;;;;;;0.50;0.50;;;28.10;76.00;;;;;;4952165;29;20031;-64
2022/08/22 10:16:49;;;;;;;0.13;0.10;;;28.20;76.20;;;;;;4952283;29;20593;-63
2022/08/22 10:19:25;;;;;;;0.70;0.38;;;28.00;75.50;;;;;;4954374;29;20498;-63
2022/08/22 10:22:35;;;;;;;0.82;0.77;;;28.30;76.40;;;;;;4941922;29;20468;-64
2022/08/22 10:25:41;;;;;;;1.27;0.57;;;28.30;75.40;;;;;;4953400;29;20043;-66
2022/08/22 10:28:45;;;;;;;0.35;0.20;;;28.50;75.10;;;;;;4926485;29;20046;-66
2022/08/22 10:31:49;;;;;;;0.10;0.10;;;28.60;73.60;;;;;;4944856;29;20171;-66
2022/08/22 10:34:26;;;;;;;0.17;0.17;;;29.00;73.00;;;;;;4953202;29;20388;-65
2022/08/22 10:37:13;;;;;;;0.30;0.28;;;29.20;73.00;;;;;;4948057;28;20040;-66
2022/08/22 10:40:02;;;;;;;1.20;0.93;;;29.40;71.60;;;;;;4935004;29;20129;-66
2022/08/22 10:42:51;;;;;;;0.45;0.45;;;29.40;71.10;;;;;;4948928;29;20149;-65
2022/08/22 10:45:39;;;;;;;1.60;0.30;;;29.40;71.30;;;;;;4946082;29;20502;-65
2022/08/22 10:48:05;;;;;;;0.30;0.30;;;29.40;70.60;;;;;;4952306;29;20042;-65
2022/08/22 10:50:47;;;;;;;0.50;0.43;;;29.50;69.60;;;;;;4945734;29;20036;-65
2022/08/22 10:53:45;;;;;;;0.15;0.15;;;29.70;69.20;;;;;;4951739;29;20043;-65
2022/08/22 10:56:48;;;;;;;1.65;0.35;;;29.50;67.10;;;;;;4949786;29;20410;-66
2022/08/22 10:59:35;;;;;;;0.90;0.40;;;29.60;68.10;;;;;;4943373;29;20027;-65
2022/08/22 11:02:37;;;;;;;0.25;0.20;;;29.60;68.70;;;;;;4950395;29;20035;-65
2022/08/22 11:05:42;;;;;;;0.00;0.00;;;29.50;67.20;;;;;;4952035;29;20475;-65
2022/08/22 11:08:19;;;;;;;0.55;0.55;;;29.40;66.40;;;;;;4947534;29;20035;-65
2022/08/22 11:11:29;;;;;;;0.52;0.30;;;29.50;67.90;;;;;;4953302;29;20126;-65
2022/08/22 11:14:28;;;;;;;2.17;1.13;;;29.80;66.30;;;;;;4909092;29;20040;-65
2022/08/22 11:17:13;;;;;;;0.08;0.08;;;30.10;67.10;;;;;;4938749;29;20038;-65
2022/08/22 11:19:56;;;;;;;0.05;0.05;;;30.30;64.70;;;;;;4953127;29;20105;-65
2022/08/22 11:22:47;;;;;;;1.02;0.95;;;30.20;63.90;;;;;;4952431;29;20488;-65
2022/08/22 11:25:40;;;;;;;0.40;0.38;;;30.50;63.40;;;;;;4936010;29;20039;-65
2022/08/22 11:28:25;;;;;;;0.52;0.50;;;30.90;63.80;;;;;;4945607;29;20038;-65
2022/08/22 11:31:26;;;;;;;0.17;0.17;;;31.30;61.50;;;;;;4935407;29;20031;-65
2022/08/22 11:34:18;;;;;;;1.67;0.70;;;30.50;61.50;;;;;;4933413;29;20055;-64
2022/08/22 11:37:07;;;;;;;0.45;0.45;;;30.30;63.10;;;;;;4950421;29;20105;-65
2022/08/22 11:39:56;;;;;;;0.20;0.20;;;29.80;62.90;;;;;;4951869;29;20050;-65
2022/08/22 11:42:37;;;;;;;2.03;0.47;;;29.50;63.60;;;;;;4950987;29;20472;-65
2022/08/22 11:45:07;;;;;;;0.10;0.10;;;29.10;64.10;;;;;;4947583;29;20142;-65
2022/08/22 11:47:56;;;;;;;1.45;1.15;;;28.90;64.10;;;;;;4948855;29;20034;-65
2022/08/22 11:50:37;;;;;;;0.17;0.17;;;28.80;64.50;;;;;;4929811;29;20038;-65
2022/08/22 11:53:25;;;;;;;0.32;0.32;;;28.70;64.60;;;;;;4934770;29;20031;-65
2022/08/22 11:56:33;;;;;;;3.03;0.73;;;28.80;64.90;;;;;;4943475;29;20028;-66
2022/08/22 11:59:14;;;;;;;0.47;0.35;;;29.10;64.60;;;;;;4967298;28;20039;-65
2022/08/22 12:01:51;;;;;;;0.10;0.10;;;29.30;63.80;;;;;;4934432;29;20484;-66
2022/08/22 12:04:43;;;;;;;0.10;0.05;;;29.90;62.70;;;;;;4947527;29;20665;-65
2022/08/22 12:07:26;;;;;;;0.00;0.00;;;30.50;61.70;;;;;;4941240;29;20043;-65
2022/08/22 12:10:19;;;;;;;0.55;0.50;;;30.50;60.70;;;;;;4948437;28;20032;-65
2022/08/22 12:13:19;;;;;;;10.05;0.40;;;31.20;60.60;;;;;;4941890;29;20706;-66
2022/08/22 12:16:26;;;;;;;1.70;0.73;;;31.00;59.90;;;;;;4951061;29;20065;-65
2022/08/22 12:19:06;;;;;;;0.20;0.10;;;30.80;60.20;;;;;;4948373;29;20058;-66
2022/08/22 12:22:06;;;;;;;0.73;0.60;;;31.50;60.70;;;;;;4950526;29;20032;-67
2022/08/22 12:24:58;;;;;;;0.80;0.55;;;32.00;58.70;;;;;;4952312;29;20039;-66
2022/08/22 12:27:54;;;;;;;0.10;0.10;;;32.20;57.20;;;;;;4949288;29;20041;-66
2022/08/22 12:30:46;;;;;;;2.17;0.30;;;31.40;58.20;;;;;;4945090;29;20039;-66
2022/08/22 12:33:36;;;;;;;0.43;0.43;;;32.00;58.30;;;;;;4946950;29;20544;-66
2022/08/22 12:36:32;;;;;;;0.63;0.30;;;31.70;57.60;;;;;;4950381;29;20139;-66
2022/08/22 12:39:38;;;;;;;0.05;0.05;;;31.80;58.00;;;;;;4951997;29;20099;-66
2022/08/22 12:42:45;;;;;;;0.10;0.10;;;32.20;57.00;;;;;;4926462;29;20041;-66
2022/08/22 12:45:36;;;;;;;1.48;0.50;;;32.30;56.90;;;;;;4951202;29;20038;-66
2022/08/22 12:48:28;;;;;;;0.65;0.45;;;32.20;56.50;;;;;;4945488;29;20055;-66
2022/08/22 12:52:00;;;;;;;0.65;0.65;;;32.60;56.40;;;;;;4916868;29;20043;-67
2022/08/22 12:54:57;;;;;;;0.52;0.20;;;32.80;55.80;;;;;;4879517;29;20032;-66
2022/08/22 12:58:06;;;;;;;0.47;0.47;;;33.20;55.70;;;;;;4890362;29;20032;-66
2022/08/22 13:00:39;;;;;;;0.57;0.20;;;32.90;54.90;;;;;;4814913;29;20133;-66
2022/08/22 13:03:27;;;;;;;0.28;0.13;;;32.60;56.00;;;;;;4874801;29;20032;-66
2022/08/22 13:05:55;;;;;;;0.65;0.30;;;33.10;56.30;;;;;;4891859;29;20037;-67
2022/08/22 13:08:45;;;;;;;17.13;0.85;;;32.80;55.50;;;;;;4868326;29;20075;-66
2022/08/22 13:11:14;;;;;;;0.45;0.45;;;33.70;54.70;;;;;;4858633;29;20045;-65
2022/08/22 13:13:54;;;;;;;0.28;0.28;;;34.10;54.30;;;;;;4865962;29;20144;-65
2022/08/22 13:16:24;;;;;;;0.17;0.17;;;34.10;54.30;;;;;;4861594;29;20324;-65
2022/08/22 13:19:02;;;;;;;0.15;0.15;;;34.40;53.70;;;;;;4857825;29;20052;-66
2022/08/22 13:21:38;;;;;;;0.15;0.10;;;34.20;53.70;;;;;;4876209;29;20029;-66
2022/08/22 13:24:10;;;;;;;0.17;0.15;;;33.90;54.30;;;;;;4876083;29;20067;-66
2022/08/22 13:26:49;;;;;;;0.03;0.03;;;34.40;53.60;;;;;;4950640;29;20027;-66
2022/08/22 13:29:37;;;;;;;0.00;0.00;;;35.10;52.30;;;;;;4953692;29;20023;-66
2022/08/22 13:32:04;;;;;;;12.32;0.60;;;33.90;51.90;;;;;;4954147;29;20027;-66
2022/08/22 13:34:42;;;;;;;0.22;0.22;;;34.20;52.60;;;;;;4950441;29;20057;-66
2022/08/22 13:37:16;;;;;;;0.03;0.03;;;35.10;52.40;;;;;;4952515;29;20031;-66
2022/08/22 13:39:48;;;;;;;0.10;0.00;;;35.60;51.50;;;;;;4950975;29;20042;-66
2022/08/22 13:42:24;;;;;;;0.30;0.30;;;35.10;51.50;;;;;;4948097;29;20027;-66
2022/08/22 13:44:54;;;;;;;0.13;0.13;;;34.50;51.80;;;;;;4951137;29;20039;-66
2022/08/22 13:47:23;;;;;;;0.10;0.10;;;34.60;51.80;;;;;;4948141;29;20035;-66
2022/08/22 13:49:54;;;;;;;1.00;0.32;;;35.20;51.80;;;;;;4934236;29;20495;-66
2022/08/22 13:52:35;;;;;;;3.40;0.43;;;36.00;50.30;;;;;;4946646;29;20036;-66
2022/08/22 13:55:31;;;;;;;0.43;0.35;;;35.30;50.70;;;;;;4939427;29;20558;-65
2022/08/22 13:58:19;;;;;;;0.20;0.20;;;34.90;51.60;;;;;;4947490;29;20117;-66
2022/08/22 14:01:02;;;;;;;1.27;1.00;;;36.20;50.90;;;;;;4952213;29;20038;-65
2022/08/22 14:03:44;;;;;;;0.63;0.32;;;36.50;50.60;;;;;;4944886;29;20031;-65
2022/08/22 14:06:38;;;;;;;4.38;0.60;;;37.60;49.50;;;;;;4951849;29;20027;-65
2022/08/22 14:09:26;;;;;;;0.95;0.32;;;34.60;50.90;;;;;;4954154;29;20035;-65
2022/08/22 14:12:18;;;;;;;0.10;0.10;;;32.60;53.20;;;;;;4936234;29;20416;-65
2022/08/22 14:14:53;;;;;;;0.22;0.22;;;32.90;53.00;;;;;;4949950;29;20024;-66
2022/08/22 14:17:27;;;;;;;0.68;0.60;;;33.30;52.80;;;;;;4953771;29;20365;-66
2022/08/22 14:20:05;;;;;;;0.40;0.20;;;33.10;52.20;;;;;;4942593;29;20030;-65
2022/08/22 14:22:34;;;;;;;0.10;0.10;;;33.30;53.10;;;;;;4951571;29;20643;-65
2022/08/22 14:25:18;;;;;;;0.00;0.00;;;33.30;52.40;;;;;;4941885;29;20035;-65
2022/08/22 14:27:51;;;;;;;0.82;0.35;;;33.80;52.60;;;;;;4944897;29;20122;-65
2022/08/22 14:30:21;;;;;;;0.95;0.63;;;34.50;53.20;;;;;;4954334;29;20040;-65
2022/08/22 14:33:19;;;;;;;0.30;0.20;;;35.70;51.50;;;;;;4952083;28;20035;-66